Time;durP1;ratioP1;P1;durP2;ratioP2;P2;SDS_P1;SDS_P2;PMS_P1;PMS_P2;Temp;Humidity;BMP_temperature;BMP_pressure;BME280_temperature;BME280_humidity;BME280_pressure;Samples;Min_cycle;Max_cycle;Signal;HPM_P1;HPM_P2
2021/05/16 00:01:21;;;;;;;;;;;;;;;18.64;56.98;98837.72;5033313;28;19924;-38
2021/05/16 00:03:47;;;;;;;;;;;;;;;18.33;57.91;98849.47;5033546;28;19912;-38
2021/05/16 00:06:13;;;;;;;;;;;;;;;18.59;57.79;98843.16;5033319;28;19947;-38
2021/05/16 00:08:38;;;;;;;;;;;;;;;18.74;57.38;98848.44;5033970;28;19908;-38
2021/05/16 00:11:03;;;;;;;;;;;;;;;18.98;56.15;98845.06;5033591;28;19909;-38
2021/05/16 00:13:29;;;;;;;;;;;;;;;18.67;57.43;98842.56;5033798;28;19916;-38
2021/05/16 00:15:54;;;;;;;;;;;;;;;18.47;57.30;98848.88;5033332;28;19917;-38
2021/05/16 00:18:19;;;;;;;;;;;;;;;18.29;58.16;98850.28;5033594;28;20067;-36
2021/05/16 00:20:45;;;;;;;;;;;;;;;18.47;57.45;98846.19;5033129;28;20333;-37
2021/05/16 00:23:11;;;;;;;;;;;;;;;18.52;57.67;98851.53;5033281;28;19909;-49
2021/05/16 00:25:36;;;;;;;;;;;;;;;18.83;56.50;98854.91;5033369;28;20007;-51
2021/05/16 00:28:01;;;;;;;;;;;;;;;19.02;55.72;98854.22;5033318;28;19936;-52
2021/05/16 00:30:27;;;;;;;;;;;;;;;19.16;55.88;98846.31;5033299;28;20308;-53
2021/05/16 00:32:53;;;;;;;;;;;;;;;18.12;58.25;98850.63;5015055;28;19955;-52
2021/05/16 00:35:19;;;;;;;;;;;;;;;17.90;60.08;98846.38;5033087;28;20316;-51
2021/05/16 00:37:44;;;;;;;;;;;;;;;18.09;59.25;98845.78;5033339;28;19909;-50
2021/05/16 00:40:09;;;;;;;;;;;;;;;17.87;59.00;98848.81;5033018;28;19909;-52
2021/05/16 00:42:35;;;;;;;;;;;;;;;17.76;60.27;98848.81;5032722;28;19915;-52
2021/05/16 00:45:01;;;;;;;;;;;;;;;18.06;59.04;98854.41;5032907;28;20098;-49
2021/05/16 00:47:26;;;;;;;;;;;;;;;17.64;60.70;98855.56;5032555;28;20253;-50
2021/05/16 00:49:51;;;;;;;;;;;;;;;17.70;59.88;98844.50;5032491;28;19909;-51
2021/05/16 00:52:17;;;;;;;;;;;;;;;17.77;60.38;98847.72;5031014;28;19924;-50
2021/05/16 00:54:42;;;;;;;;;;;;;;;17.46;61.16;98855.03;5032119;28;19909;-50
2021/05/16 00:57:07;;;;;;;;;;;;;;;17.01;63.27;98851.25;5032465;28;19924;-51
2021/05/16 00:59:32;;;;;;;;;;;;;;;16.98;62.58;98852.63;5032584;28;19909;-50
2021/05/16 01:01:58;;;;;;;;;;;;;;;17.10;62.65;98846.19;5032207;28;19913;-51
2021/05/16 01:04:23;;;;;;;;;;;;;;;17.06;63.08;98847.75;5032662;28;19912;-51
2021/05/16 01:06:48;;;;;;;;;;;;;;;16.67;64.66;98851.69;5032643;28;19908;-52
2021/05/16 01:09:13;;;;;;;;;;;;;;;16.90;64.72;98841.56;5032747;28;19913;-51
2021/05/16 01:11:41;;;;;;;;;;;;;;;17.22;62.90;98849.38;5064512;28;19988;-52
2021/05/16 01:14:09;;;;;;;;;;;;;;;17.30;61.82;98839.97;5032313;28;19920;-51
2021/05/16 01:16:34;;;;;;;;;;;;;;;17.54;61.17;98829.47;5031849;28;19963;-52
2021/05/16 01:18:59;;;;;;;;;;;;;;;17.01;63.99;98832.44;5064073;28;19929;-51
2021/05/16 01:21:25;;;;;;;;;;;;;;;17.33;62.24;98826.81;5032037;28;19920;-51
2021/05/16 01:23:50;;;;;;;;;;;;;;;17.15;62.95;98822.78;5032289;28;19936;-53
2021/05/16 01:26:15;;;;;;;;;;;;;;;17.72;60.93;98830.78;5032145;28;19996;-51
2021/05/16 01:28:44;;;;;;;;;;;;;;;16.99;63.21;98830.03;5032146;28;19931;-51
2021/05/16 01:31:10;;;;;;;;;;;;;;;17.13;62.69;98829.50;5032109;28;19917;-51
2021/05/16 01:33:35;;;;;;;;;;;;;;;16.86;63.34;98833.22;5031821;28;19913;-52
2021/05/16 01:36:00;;;;;;;;;;;;;;;16.90;63.33;98826.25;5031953;28;19909;-51
2021/05/16 01:38:26;;;;;;;;;;;;;;;16.90;62.50;98822.75;5032048;28;19999;-53
2021/05/16 01:40:51;;;;;;;;;;;;;;;16.66;63.91;98825.09;5031875;28;20411;-52
2021/05/16 01:43:16;;;;;;;;;;;;;;;16.39;64.31;98820.75;5024669;28;19952;-53
2021/05/16 01:45:42;;;;;;;;;;;;;;;17.08;62.62;98832.19;5012190;28;19913;-52
2021/05/16 01:48:07;;;;;;;;;;;;;;;17.19;61.67;98828.41;5030182;28;20011;-51
2021/05/16 01:50:33;;;;;;;;;;;;;;;17.07;61.67;98835.94;5031943;28;19909;-53
2021/05/16 01:53:00;;;;;;;;;;;;;;;17.09;62.16;98818.47;5031771;28;19916;-53
2021/05/16 01:55:25;;;;;;;;;;;;;;;17.12;61.30;98825.22;5031967;28;20385;-50
2021/05/16 01:57:51;;;;;;;;;;;;;;;17.61;60.58;98830.00;5031860;28;19909;-52
2021/05/16 02:00:21;;;;;;;;;;;;;;;17.50;60.24;98831.91;5031550;28;20361;-51
2021/05/16 02:02:46;;;;;;;;;;;;;;;17.70;59.71;98828.34;5031633;28;19920;-51
2021/05/16 02:05:12;;;;;;;;;;;;;;;17.70;60.08;98828.34;5031622;28;19996;-51
2021/05/16 02:07:37;;;;;;;;;;;;;;;17.73;59.50;98827.81;5030168;28;19909;-50
2021/05/16 02:10:03;;;;;;;;;;;;;;;17.29;61.39;98820.34;5031488;28;20297;-52
2021/05/16 02:12:29;;;;;;;;;;;;;;;16.75;62.69;98827.03;5031448;28;20333;-52
2021/05/16 02:14:54;;;;;;;;;;;;;;;16.71;63.02;98833.97;5031530;28;20023;-51
2021/05/16 02:17:20;;;;;;;;;;;;;;;16.56;63.53;98824.03;5031417;28;20472;-52
2021/05/16 02:19:45;;;;;;;;;;;;;;;16.59;63.37;98834.22;5031785;28;19963;-52
2021/05/16 02:22:10;;;;;;;;;;;;;;;16.61;64.06;98826.72;5031634;28;19919;-51
2021/05/16 02:24:35;;;;;;;;;;;;;;;16.66;63.64;98833.16;5031705;28;20343;-53
2021/05/16 02:27:01;;;;;;;;;;;;;;;16.89;63.24;98837.28;5031828;28;19932;-53
2021/05/16 02:29:29;;;;;;;;;;;;;;;16.39;64.86;98835.00;5031756;28;19912;-53
2021/05/16 02:31:55;;;;;;;;;;;;;;;16.76;64.06;98830.50;5031425;28;19943;-52
2021/05/16 02:34:20;;;;;;;;;;;;;;;17.09;63.56;98839.97;5031215;28;19929;-49
2021/05/16 02:36:45;;;;;;;;;;;;;;;16.95;64.07;98844.28;5031122;28;19916;-50
2021/05/16 02:39:11;;;;;;;;;;;;;;;17.06;63.84;98845.91;5031348;28;19916;-50
2021/05/16 02:41:36;;;;;;;;;;;;;;;17.18;63.13;98842.94;5031159;28;19931;-53
2021/05/16 02:44:01;;;;;;;;;;;;;;;17.30;62.62;98831.91;5030068;28;19916;-51
2021/05/16 02:46:26;;;;;;;;;;;;;;;17.02;62.95;98841.31;5030828;28;19963;-51
2021/05/16 02:48:52;;;;;;;;;;;;;;;17.32;63.14;98845.88;5014223;28;19915;-52
2021/05/16 02:51:17;;;;;;;;;;;;;;;17.06;63.49;98840.53;5011504;28;19909;-53
2021/05/16 02:53:43;;;;;;;;;;;;;;;17.18;62.78;98848.31;5015728;28;20400;-49
2021/05/16 02:56:09;;;;;;;;;;;;;;;17.25;62.76;98851.56;5011512;28;19952;-52
2021/05/16 02:58:34;;;;;;;;;;;;;;;17.59;61.51;98846.41;5011524;28;19948;-50
2021/05/16 03:00:59;;;;;;;;;;;;;;;17.48;61.55;98846.72;5016126;28;19913;-51
2021/05/16 03:03:25;;;;;;;;;;;;;;;17.46;62.11;98846.16;5031017;28;19909;-51
2021/05/16 03:05:50;;;;;;;;;;;;;;;17.85;61.01;98851.78;5030902;28;19915;-53
2021/05/16 03:08:15;;;;;;;;;;;;;;;17.94;60.63;98862.78;5030979;28;19949;-53
2021/05/16 03:10:40;;;;;;;;;;;;;;;18.09;59.92;98860.06;5030998;28;19909;-52
2021/05/16 03:13:06;;;;;;;;;;;;;;;17.72;61.31;98857.69;5030961;28;19912;-52
2021/05/16 03:15:31;;;;;;;;;;;;;;;18.22;59.56;98861.38;5030667;28;19991;-52
2021/05/16 03:17:57;;;;;;;;;;;;;;;18.38;59.67;98866.69;5031260;28;19916;-53
2021/05/16 03:20:22;;;;;;;;;;;;;;;18.19;60.03;98869.19;5034525;28;19990;-50
2021/05/16 03:22:47;;;;;;;;;;;;;;;18.37;59.19;98871.25;5034459;28;19909;-51
2021/05/16 03:25:13;;;;;;;;;;;;;;;18.36;58.97;98872.34;5034426;28;20356;-52
2021/05/16 03:27:38;;;;;;;;;;;;;;;18.42;58.56;98870.44;5034276;28;19909;-53
2021/05/16 03:30:04;;;;;;;;;;;;;;;18.35;59.08;98868.84;5034037;28;19908;-53
2021/05/16 03:32:29;;;;;;;;;;;;;;;18.49;58.87;98871.75;5034557;28;20353;-53
2021/05/16 03:34:55;;;;;;;;;;;;;;;18.53;58.32;98875.50;5034060;28;19920;-52
2021/05/16 03:37:20;;;;;;;;;;;;;;;18.39;59.23;98879.06;5034110;28;19999;-52
2021/05/16 03:39:45;;;;;;;;;;;;;;;18.68;58.75;98881.91;5034048;28;19909;-49
2021/05/16 03:42:10;;;;;;;;;;;;;;;18.82;57.89;98877.53;5034006;28;19960;-51
2021/05/16 03:44:36;;;;;;;;;;;;;;;18.93;57.79;98886.38;5033875;28;19912;-50
2021/05/16 03:47:01;;;;;;;;;;;;;;;18.88;57.93;98881.00;5033917;28;19999;-49
2021/05/16 03:49:26;;;;;;;;;;;;;;;18.95;57.88;98884.19;5033908;28;19920;-51
2021/05/16 03:51:51;;;;;;;;;;;;;;;18.83;57.85;98884.53;5033711;28;20329;-51
2021/05/16 03:54:17;;;;;;;;;;;;;;;18.93;57.56;98892.56;5033612;28;19920;-52
2021/05/16 03:56:42;;;;;;;;;;;;;;;19.06;56.77;98890.34;5032993;28;19912;-49
2021/05/16 03:59:07;;;;;;;;;;;;;;;19.08;57.02;98893.56;5033849;28;20034;-51
2021/05/16 04:01:33;;;;;;;;;;;;;;;18.98;57.31;98907.09;5033427;28;19913;-52
2021/05/16 04:03:58;;;;;;;;;;;;;;;18.87;57.76;98898.28;5033538;28;20000;-52
2021/05/16 04:06:23;;;;;;;;;;;;;;;18.25;59.32;98898.50;5033843;28;19920;-50
2021/05/16 04:08:49;;;;;;;;;;;;;;;18.30;59.35;98908.47;5033477;28;20396;-52
2021/05/16 04:11:14;;;;;;;;;;;;;;;18.29;59.37;98906.84;5033612;28;19909;-49
2021/05/16 04:13:39;;;;;;;;;;;;;;;18.40;59.31;98908.41;5033709;28;19982;-51
2021/05/16 04:16:05;;;;;;;;;;;;;;;18.50;59.26;98908.38;5033249;28;19927;-52
2021/05/16 04:18:30;;;;;;;;;;;;;;;18.75;58.25;98904.75;5033358;28;19905;-49
2021/05/16 04:20:55;;;;;;;;;;;;;;;19.02;57.71;98906.25;5033258;28;20062;-51
2021/05/16 04:23:20;;;;;;;;;;;;;;;19.07;57.63;98908.91;5033375;28;19909;-50
2021/05/16 04:25:46;;;;;;;;;;;;;;;19.09;57.42;98909.44;5033823;28;19920;-53
2021/05/16 04:28:11;;;;;;;;;;;;;;;19.17;57.21;98902.63;5033418;28;19951;-51
2021/05/16 04:30:36;;;;;;;;;;;;;;;19.03;57.72;98907.84;5031771;28;19917;-49
2021/05/16 04:33:02;;;;;;;;;;;;;;;19.17;57.49;98905.34;5033572;28;19912;-50
2021/05/16 04:35:27;;;;;;;;;;;;;;;19.37;57.27;98909.00;5033120;28;19913;-49
2021/05/16 04:37:52;;;;;;;;;;;;;;;19.51;56.68;98910.75;5033025;28;20369;-53
2021/05/16 04:40:17;;;;;;;;;;;;;;;19.54;55.93;98910.19;5032679;28;20365;-52
2021/05/16 04:42:43;;;;;;;;;;;;;;;19.61;55.68;98917.13;5033230;28;19909;-52
2021/05/16 04:45:09;;;;;;;;;;;;;;;19.42;56.18;98914.31;5031574;28;20352;-52
2021/05/16 04:47:34;;;;;;;;;;;;;;;19.39;56.37;98913.00;5032790;28;19909;-51
2021/05/16 04:50:00;;;;;;;;;;;;;;;19.46;56.22;98915.41;5032485;28;19992;-52
2021/05/16 04:52:25;;;;;;;;;;;;;;;19.41;56.70;98912.72;5032286;28;20337;-52
2021/05/16 04:54:50;;;;;;;;;;;;;;;19.37;56.67;98917.09;5032095;28;19916;-52
2021/05/16 04:57:16;;;;;;;;;;;;;;;19.41;56.36;98910.03;5032416;28;20003;-51
2021/05/16 04:59:41;;;;;;;;;;;;;;;19.54;56.29;98915.56;5032432;28;20369;-51
2021/05/16 05:02:07;;;;;;;;;;;;;;;19.29;57.37;98913.09;5032595;28;20293;-53
2021/05/16 05:04:33;;;;;;;;;;;;;;;19.40;56.95;98916.50;5032596;28;20310;-54
2021/05/16 05:06:58;;;;;;;;;;;;;;;19.29;57.27;98913.88;5032415;28;20020;-53
2021/05/16 05:09:23;;;;;;;;;;;;;;;19.06;58.48;98914.59;5032335;28;20398;-53
2021/05/16 05:11:49;;;;;;;;;;;;;;;18.80;59.50;98909.34;5032233;28;20357;-53
2021/05/16 05:14:14;;;;;;;;;;;;;;;18.83;60.52;98903.41;5031700;28;19975;-52
2021/05/16 05:16:39;;;;;;;;;;;;;;;18.85;60.95;98911.19;5031925;28;19917;-55
2021/05/16 05:19:05;;;;;;;;;;;;;;;18.76;60.83;98911.75;5032510;28;19996;-53
2021/05/16 05:21:30;;;;;;;;;;;;;;;18.96;60.65;98912.75;5032004;28;19965;-54
2021/05/16 05:23:55;;;;;;;;;;;;;;;19.03;61.38;98921.34;5032066;28;19948;-50
2021/05/16 05:26:20;;;;;;;;;;;;;;;19.20;60.40;98917.47;5031862;28;19917;-51
2021/05/16 05:28:46;;;;;;;;;;;;;;;19.50;59.30;98928.03;5031708;28;19909;-52
2021/05/16 05:31:11;;;;;;;;;;;;;;;19.69;60.13;98925.44;5032132;28;19976;-53
2021/05/16 05:33:36;;;;;;;;;;;;;;;19.79;62.87;98929.19;5032103;28;19952;-53
2021/05/16 05:36:01;;;;;;;;;;;;;;;20.20;61.31;98932.28;5031722;28;19923;-52
2021/05/16 05:38:27;;;;;;;;;;;;;;;20.65;58.86;98938.25;5031335;28;19986;-53
2021/05/16 05:40:52;;;;;;;;;;;;;;;21.00;56.38;98933.50;5030594;28;20377;-53
2021/05/16 05:43:17;;;;;;;;;;;;;;;21.18;55.85;98937.28;5031108;28;19909;-54
2021/05/16 05:45:43;;;;;;;;;;;;;;;21.45;56.81;98942.03;5030981;28;19916;-51
2021/05/16 05:48:08;;;;;;;;;;;;;;;21.70;55.46;98941.94;5030766;28;20494;-50
2021/05/16 05:50:33;;;;;;;;;;;;;;;21.73;54.62;98942.16;5030493;28;19931;-49
2021/05/16 05:53:02;;;;;;;;;;;;;;;21.63;54.33;98953.16;5030196;28;19920;-50
2021/05/16 05:55:28;;;;;;;;;;;;;;;21.56;55.06;98955.44;5027680;28;19913;-50
2021/05/16 05:57:53;;;;;;;;;;;;;;;21.82;54.19;98955.81;5030576;28;19909;-51
2021/05/16 06:00:18;;;;;;;;;;;;;;;21.85;55.69;98964.13;5030173;28;20401;-52
2021/05/16 06:02:44;;;;;;;;;;;;;;;22.16;53.28;98970.91;5030633;28;19909;-53
2021/05/16 06:05:09;;;;;;;;;;;;;;;21.91;53.28;98961.34;5030554;28;19916;-52
2021/05/16 06:07:35;;;;;;;;;;;;;;;21.65;53.41;98959.06;5029564;28;20005;-53
2021/05/16 06:10:00;;;;;;;;;;;;;;;21.77;53.48;98955.91;5029910;28;19916;-52
2021/05/16 06:12:26;;;;;;;;;;;;;;;21.78;55.28;98958.31;5028219;28;19915;-48
2021/05/16 06:14:53;;;;;;;;;;;;;;;22.05;52.89;98962.19;5029793;28;19966;-49
2021/05/16 06:17:18;;;;;;;;;;;;;;;22.17;52.34;98965.19;5029739;28;19917;-47
2021/05/16 06:19:44;;;;;;;;;;;;;;;21.83;53.05;98955.50;5030059;28;19982;-51
2021/05/16 06:22:13;;;;;;;;;;;;;;;21.75;53.02;98958.91;5028705;28;19912;-53
2021/05/16 06:24:38;;;;;;;;;;;;;;;21.60;54.62;98959.16;5030050;28;19932;-51
2021/05/16 06:27:04;;;;;;;;;;;;;;;21.69;54.68;98957.38;5029977;28;20370;-51
2021/05/16 06:29:29;;;;;;;;;;;;;;;22.06;53.91;98969.19;5030360;28;19915;-52
2021/05/16 06:31:54;;;;;;;;;;;;;;;22.03;53.55;98967.91;5030370;28;19919;-46
2021/05/16 06:34:20;;;;;;;;;;;;;;;22.17;53.10;98973.34;5030487;28;19925;-51
2021/05/16 06:36:45;;;;;;;;;;;;;;;22.11;54.14;98971.03;5030302;28;19946;-49
2021/05/16 06:39:10;;;;;;;;;;;;;;;21.63;54.19;98964.78;5030002;28;19920;-49
2021/05/16 06:41:35;;;;;;;;;;;;;;;21.45;54.71;98973.72;5030520;28;19952;-50
2021/05/16 06:44:01;;;;;;;;;;;;;;;21.69;54.17;98972.81;5030704;28;19909;-51
2021/05/16 06:46:26;;;;;;;;;;;;;;;21.34;54.48;98970.31;5029841;28;19912;-52
2021/05/16 06:48:52;;;;;;;;;;;;;;;22.04;53.33;98976.81;5029060;28;20425;-49
2021/05/16 06:51:17;;;;;;;;;;;;;;;21.91;53.67;98964.06;5030720;28;20430;-50
2021/05/16 06:53:43;;;;;;;;;;;;;;;21.77;53.50;98967.53;5031784;28;19932;-51
2021/05/16 06:56:11;;;;;;;;;;;;;;;22.01;53.07;98964.69;5031661;28;20015;-52
2021/05/16 06:58:37;;;;;;;;;;;;;;;22.77;51.47;98958.09;5033478;28;19920;-50
2021/05/16 07:01:02;;;;;;;;;;;;;;;22.15;52.81;98972.84;5033628;28;19913;-49
2021/05/16 07:03:27;;;;;;;;;;;;;;;22.09;52.89;98967.81;5031942;28;20339;-50
2021/05/16 07:05:53;;;;;;;;;;;;;;;22.65;51.06;98967.56;5026844;28;20000;-51
2021/05/16 07:08:18;;;;;;;;;;;;;;;22.93;50.93;98955.88;5033068;28;19952;-38
2021/05/16 07:10:43;;;;;;;;;;;;;;;23.54;49.25;98959.16;5033449;28;20077;-38
2021/05/16 07:13:08;;;;;;;;;;;;;;;23.96;48.10;98957.84;5033703;28;19957;-38
2021/05/16 07:15:34;;;;;;;;;;;;;;;24.10;48.21;98951.53;5033570;28;20007;-38
2021/05/16 07:17:59;;;;;;;;;;;;;;;24.45;46.66;98959.84;5033505;28;19928;-38
2021/05/16 07:20:24;;;;;;;;;;;;;;;24.67;46.86;98954.31;5033602;28;19909;-38
2021/05/16 07:22:50;;;;;;;;;;;;;;;24.05;47.79;98959.81;5033587;28;19913;-36
2021/05/16 07:25:17;;;;;;;;;;;;;;;24.50;46.78;98960.50;5030959;28;20431;-38
2021/05/16 07:27:42;;;;;;;;;;;;;;;25.05;46.02;98952.94;5033746;28;20003;-38
2021/05/16 07:30:08;;;;;;;;;;;;;;;25.43;44.66;98955.06;5032251;28;20004;-51
2021/05/16 07:32:33;;;;;;;;;;;;;;;25.73;44.22;98950.56;5033548;28;20008;-49
2021/05/16 07:34:58;;;;;;;;;;;;;;;24.90;45.38;98956.94;5034263;28;20032;-53
2021/05/16 07:37:24;;;;;;;;;;;;;;;24.71;46.36;98963.47;5035491;28;19987;-51
2021/05/16 07:39:49;;;;;;;;;;;;;;;24.97;45.66;98960.00;5032691;28;19917;-49
2021/05/16 07:42:14;;;;;;;;;;;;;;;24.81;45.84;98959.66;5032643;28;19920;-50
2021/05/16 07:44:40;;;;;;;;;;;;;;;25.79;44.59;98953.91;5032852;28;19913;-50
2021/05/16 07:47:07;;;;;;;;;;;;;;;25.09;45.81;98962.91;5032595;28;19917;-49
2021/05/16 07:49:32;;;;;;;;;;;;;;;25.14;44.99;98960.00;5031492;28;20441;-51
2021/05/16 07:51:58;;;;;;;;;;;;;;;24.91;45.87;98956.63;5032970;28;19996;-51
2021/05/16 07:54:23;;;;;;;;;;;;;;;24.82;45.34;98968.59;5033113;28;19908;-49
2021/05/16 07:56:48;;;;;;;;;;;;;;;24.75;44.97;98964.44;5032801;28;20249;-49
2021/05/16 07:59:13;;;;;;;;;;;;;;;24.63;44.84;98956.06;5031617;28;19940;-51
2021/05/16 08:01:39;;;;;;;;;;;;;;;24.14;45.80;98964.19;5026680;28;19917;-50
2021/05/16 08:04:04;;;;;;;;;;;;;;;23.48;47.07;98961.19;5032222;28;19913;-49
2021/05/16 08:06:29;;;;;;;;;;;;;;;24.16;45.90;98963.84;5032759;28;19916;-50
2021/05/16 08:08:55;;;;;;;;;;;;;;;24.13;46.25;98964.50;5032637;28;19909;-49
2021/05/16 08:11:21;;;;;;;;;;;;;;;24.47;45.19;98969.28;5032273;28;19909;-52
2021/05/16 08:13:46;;;;;;;;;;;;;;;24.86;44.92;98970.38;5032608;28;19909;-50
2021/05/16 08:16:11;;;;;;;;;;;;;;;24.40;45.13;98963.50;5032134;28;19924;-50
2021/05/16 08:18:37;;;;;;;;;;;;;;;24.19;45.07;98957.81;5032726;28;20436;-49
2021/05/16 08:21:02;;;;;;;;;;;;;;;24.77;43.69;98967.63;5032507;28;19913;-52
2021/05/16 08:23:27;;;;;;;;;;;;;;;24.33;44.77;98955.78;5032283;28;20349;-51
2021/05/16 08:25:53;;;;;;;;;;;;;;;24.38;45.43;98963.78;5030697;28;19944;-49
2021/05/16 08:28:18;;;;;;;;;;;;;;;24.75;44.29;98952.72;5021376;28;19915;-50
2021/05/16 08:30:43;;;;;;;;;;;;;;;24.75;43.82;98947.28;5014318;28;19914;-52
2021/05/16 08:33:09;;;;;;;;;;;;;;;24.49;44.11;98952.66;5024635;28;19932;-49
2021/05/16 08:35:34;;;;;;;;;;;;;;;24.64;43.80;98959.63;5030996;28;19913;-51
2021/05/16 08:37:59;;;;;;;;;;;;;;;24.26;44.38;98958.16;5030867;28;19909;-49
2021/05/16 08:40:25;;;;;;;;;;;;;;;24.09;45.04;98958.88;5030982;28;19905;-50
2021/05/16 08:42:50;;;;;;;;;;;;;;;24.07;45.28;98954.88;5030851;28;20031;-49
2021/05/16 08:45:16;;;;;;;;;;;;;;;24.09;45.14;98963.53;5031228;28;20423;-51
2021/05/16 08:47:42;;;;;;;;;;;;;;;23.95;45.38;98958.97;5031070;28;19912;-48
2021/05/16 08:50:08;;;;;;;;;;;;;;;22.96;48.47;98956.09;5031480;28;19909;-50
2021/05/16 08:52:33;;;;;;;;;;;;;;;23.52;47.32;98959.47;5031749;28;19916;-51
2021/05/16 08:54:58;;;;;;;;;;;;;;;23.56;47.45;98955.00;5031770;28;19909;-49
2021/05/16 08:57:23;;;;;;;;;;;;;;;23.95;46.21;98958.97;5031987;28;19916;-50
2021/05/16 09:00:08;;;;;;;;;;;;;;;23.97;46.66;98961.34;5031928;28;19909;-51
2021/05/16 09:02:33;;;;;;;;;;;;;;;23.90;47.64;98961.03;5031667;28;20338;-52
2021/05/16 09:04:59;;;;;;;;;;;;;;;23.49;49.13;98962.78;5031434;28;19916;-52
2021/05/16 09:07:30;;;;;;;;;;;;;;;24.04;47.41;98959.00;5031439;28;19913;-51
2021/05/16 09:09:56;;;;;;;;;;;;;;;24.52;46.62;98960.19;5031177;28;19913;-51
2021/05/16 09:12:22;;;;;;;;;;;;;;;24.86;45.81;98959.47;5030836;28;19909;-50
2021/05/16 09:14:47;;;;;;;;;;;;;;;24.78;45.70;98955.63;5030653;28;19917;-50
2021/05/16 09:17:29;;;;;;;;;;;;;;;24.99;44.82;98960.47;5029746;28;20278;-51
2021/05/16 09:19:55;;;;;;;;;;;;;;;24.86;44.73;98962.19;5031161;28;19940;-52
2021/05/16 09:22:34;;;;;;;;;;;;;;;24.89;44.71;98950.69;5030624;28;19924;-52
2021/05/16 09:25:06;;;;;;;;;;;;;;;23.85;47.65;98966.56;5030780;28;20424;-51
2021/05/16 09:27:34;;;;;;;;;;;;;;;24.49;46.32;98956.16;5030856;28;19920;-52
2021/05/16 09:29:59;;;;;;;;;;;;;;;23.93;46.01;98957.66;5030906;28;20468;-51
2021/05/16 09:32:25;;;;;;;;;;;;;;;23.78;45.98;98921.66;5031574;28;19912;-50
2021/05/16 09:34:50;;;;;;;;;;;;;;;23.21;46.69;98953.94;5031124;28;20046;-50
2021/05/16 09:37:16;;;;;;;;;;;;;;;23.17;47.21;98947.50;5029821;28;19967;-52
2021/05/16 09:39:41;;;;;;;;;;;;;;;23.74;46.25;98946.97;5031220;28;20389;-50
2021/05/16 09:42:07;;;;;;;;;;;;;;;24.37;45.34;98942.38;5029419;28;19920;-50
2021/05/16 09:44:35;;;;;;;;;;;;;;;24.48;44.63;98940.16;5030695;28;19909;-50
2021/05/16 09:47:09;;;;;;;;;;;;;;;24.75;44.53;98933.69;5030746;28;19939;-50
2021/05/16 09:49:35;;;;;;;;;;;;;;;24.93;44.91;98943.50;5030666;28;19909;-50
2021/05/16 09:52:09;;;;;;;;;;;;;;;24.57;43.93;98933.66;5030489;28;20329;-52
2021/05/16 09:54:54;;;;;;;;;;;;;;;24.08;44.63;98934.72;5030792;28;20392;-51
2021/05/16 09:57:19;;;;;;;;;;;;;;;24.42;44.07;98938.72;5030587;28;19909;-49
2021/05/16 09:59:45;;;;;;;;;;;;;;;24.89;43.73;98931.66;5030927;28;19932;-48
2021/05/16 10:02:10;;;;;;;;;;;;;;;24.77;43.31;98932.28;5029440;28;20339;-51
2021/05/16 10:04:36;;;;;;;;;;;;;;;24.93;42.91;98938.06;5029390;28;19909;-51
2021/05/16 10:07:01;;;;;;;;;;;;;;;24.84;42.92;98934.50;5029025;28;19915;-52
2021/05/16 10:09:26;;;;;;;;;;;;;;;24.72;43.66;98932.41;5030354;28;19909;-51
2021/05/16 10:11:51;;;;;;;;;;;;;;;25.10;43.07;98920.94;5029926;28;20334;-50
2021/05/16 10:14:17;;;;;;;;;;;;;;;25.27;43.09;98927.53;5030188;28;19966;-50
2021/05/16 10:16:46;;;;;;;;;;;;;;;25.64;42.58;98919.81;5029835;28;20068;-51
2021/05/16 10:19:15;;;;;;;;;;;;;;;25.51;41.91;98918.84;5028971;28;19986;-51
2021/05/16 10:21:40;;;;;;;;;;;;;;;23.99;45.49;98918.41;5029382;28;19968;-49
2021/05/16 10:24:06;;;;;;;;;;;;;;;24.61;44.41;98924.88;5029014;28;20372;-49
2021/05/16 10:26:32;;;;;;;;;;;;;;;25.34;42.32;98919.66;5030131;28;19925;-52
2021/05/16 10:28:57;;;;;;;;;;;;;;;24.80;43.20;98922.66;5034151;28;19971;-49
2021/05/16 10:31:42;;;;;;;;;;;;;;;25.08;42.52;98908.78;5034243;28;19986;-51
2021/05/16 10:34:26;;;;;;;;;;;;;;;25.82;41.99;98896.06;5030305;28;19917;-51
2021/05/16 10:36:52;;;;;;;;;;;;;;;25.00;44.89;98896.78;5034170;28;19998;-49
2021/05/16 10:39:36;;;;;;;;;;;;;;;25.40;43.74;98893.91;5034307;28;19976;-51
2021/05/16 10:42:09;;;;;;;;;;;;;;;25.17;43.43;98894.03;5034046;28;19919;-52
2021/05/16 10:44:35;;;;;;;;;;;;;;;25.81;41.68;98886.25;5034385;28;19999;-49
2021/05/16 10:47:00;;;;;;;;;;;;;;;25.50;40.47;98882.66;5034111;28;20519;-51
2021/05/16 10:49:26;;;;;;;;;;;;;;;26.00;40.39;98885.91;5032917;28;19996;-52
2021/05/16 10:51:52;;;;;;;;;;;;;;;25.84;40.25;98880.97;5033658;28;20305;-51
2021/05/16 10:54:26;;;;;;;;;;;;;;;25.63;41.33;98878.16;5033100;28;19909;-51
2021/05/16 10:57:08;;;;;;;;;;;;;;;26.21;40.17;98877.81;5034105;28;19916;-49
2021/05/16 10:59:37;;;;;;;;;;;;;;;25.58;40.38;98872.06;5034122;28;20325;-50
2021/05/16 11:02:02;;;;;;;;;;;;;;;24.81;41.93;98863.59;5033818;28;20357;-50
2021/05/16 11:04:46;;;;;;;;;;;;;;;25.70;40.27;98862.13;5033720;28;19913;-50
2021/05/16 11:07:27;;;;;;;;;;;;;;;26.28;39.79;98864.47;5033605;28;20345;-49
2021/05/16 11:10:10;;;;;;;;;;;;;;;26.45;38.80;98858.91;5032415;28;19937;-50
2021/05/16 11:12:35;;;;;;;;;;;;;;;26.47;38.55;98856.63;5032452;28;19909;-51
2021/05/16 11:15:01;;;;;;;;;;;;;;;26.07;39.55;98854.28;5032469;28;20352;-50
2021/05/16 11:17:26;;;;;;;;;;;;;;;25.60;40.74;98845.31;5033220;28;19917;-52
2021/05/16 11:19:52;;;;;;;;;;;;;;;25.86;39.86;98847.94;5032194;28;19909;-52
2021/05/16 11:22:18;;;;;;;;;;;;;;;25.72;40.48;98840.78;5033548;28;20261;-49
2021/05/16 11:24:47;;;;;;;;;;;;;;;26.61;38.70;98839.25;5033380;28;19909;-50
2021/05/16 11:27:13;;;;;;;;;;;;;;;26.17;39.75;98839.47;5033281;28;19958;-51
2021/05/16 11:29:38;;;;;;;;;;;;;;;26.14;39.16;98826.50;5033397;28;19909;-51
2021/05/16 11:32:04;;;;;;;;;;;;;;;26.38;38.15;98827.81;5033245;28;19936;-51
2021/05/16 11:34:29;;;;;;;;;;;;;;;26.61;38.16;98823.66;5032755;28;19913;-51
2021/05/16 11:36:54;;;;;;;;;;;;;;;26.67;38.30;98827.81;5032749;28;19936;-51
2021/05/16 11:39:20;;;;;;;;;;;;;;;27.09;38.40;98816.84;5032354;28;19916;-51
2021/05/16 11:41:45;;;;;;;;;;;;;;;27.76;36.12;98811.34;5032755;28;20292;-51
2021/05/16 11:44:11;;;;;;;;;;;;;;;27.92;35.66;98810.69;5033012;28;20356;-51
2021/05/16 11:46:41;;;;;;;;;;;;;;;28.53;35.24;98807.09;5033062;28;19909;-50
2021/05/16 11:49:06;;;;;;;;;;;;;;;27.74;35.98;98802.69;5033172;28;19913;-50
2021/05/16 11:51:32;;;;;;;;;;;;;;;27.50;36.17;98800.72;5032668;28;20003;-51
2021/05/16 11:54:16;;;;;;;;;;;;;;;27.09;36.67;98794.19;5033002;28;20360;-50
2021/05/16 11:56:43;;;;;;;;;;;;;;;27.29;35.93;98795.31;5032688;28;19945;-52
2021/05/16 11:59:08;;;;;;;;;;;;;;;27.20;35.46;98789.13;5032949;28;19963;-50
2021/05/16 12:01:37;;;;;;;;;;;;;;;27.39;35.27;98792.16;5032898;28;19963;-50
2021/05/16 12:04:05;;;;;;;;;;;;;;;27.69;34.86;98792.75;5032631;28;19916;-50
2021/05/16 12:06:31;;;;;;;;;;;;;;;27.84;35.03;98780.34;5032239;28;19913;-51
2021/05/16 12:09:01;;;;;;;;;;;;;;;27.18;34.99;98780.47;5032463;28;19909;-50
2021/05/16 12:11:26;;;;;;;;;;;;;;;27.81;33.33;98782.97;5030867;28;19976;-51
2021/05/16 12:13:51;;;;;;;;;;;;;;;27.80;33.81;98787.66;5032775;28;19909;-52
2021/05/16 12:16:20;;;;;;;;;;;;;;;27.48;32.85;98790.13;5032507;28;20349;-51
2021/05/16 12:18:46;;;;;;;;;;;;;;;28.15;32.24;98784.47;5032382;28;19909;-50
2021/05/16 12:21:11;;;;;;;;;;;;;;;28.38;32.60;98783.97;5032339;28;20019;-51
2021/05/16 12:23:37;;;;;;;;;;;;;;;28.22;32.97;98786.63;5032341;28;19992;-50
2021/05/16 12:26:03;;;;;;;;;;;;;;;28.13;33.22;98791.41;5032352;28;20463;-50
2021/05/16 12:28:28;;;;;;;;;;;;;;;28.13;33.02;98791.41;5032340;28;20278;-51
2021/05/16 12:30:54;;;;;;;;;;;;;;;28.20;32.95;98789.72;5032124;28;20436;-50
2021/05/16 12:33:20;;;;;;;;;;;;;;;27.96;32.45;98781.53;5030926;28;19920;-51
2021/05/16 12:35:45;;;;;;;;;;;;;;;28.12;32.65;98787.91;5032029;28;19909;-51
2021/05/16 12:38:11;;;;;;;;;;;;;;;27.41;33.24;98789.88;5030671;28;20347;-50
2021/05/16 12:40:36;;;;;;;;;;;;;;;27.19;34.18;98787.50;5032013;28;19924;-51
2021/05/16 12:43:02;;;;;;;;;;;;;;;26.79;35.43;98785.31;5031945;28;19909;-51